There are multiple Weather-warnings   Click here for more information


Meteo18 Weather Cam more information Meteo18 Weather Cam


warning for Thunderstorms more information blitzortung!


Rain radar more information rain snow radar


Visit our other weather sites:

Template documentation
and downloads

And another site



Weather Underground History page Text

Daily Summary for November 17, 2017 Units:  English    Metric   Both
« Previous Day
Next Day »
Daily Weekly Monthly Yearly Custom
  High: Low: Average:
Temperature: 50.4 °F 35.6 °F 44.1 °F
Dew Point: 46.6 °F 34.9 °F 42.3 °F
Humidity: 100 % 86 % 94 %
Wind Speed: 12 mph 0 mph 2.4 mph
Wind Gust: 15 mph - -
Wind:- - East
Pressure: 30.4 in 30.3 in -
Precipitation: 0 in    
Historical Graphs
 
 
Tabular Data for November 17, 2017
Time Temperature Dew Point Pressure Wind Wind Speed Wind Gust Humidity Rainfall Rate (Hourly)
00:02 36.1 °F 35.4 °F 30.3 in Calm     97 % 0 in
00:07 36.1 °F 35.4 °F 30.3 in Calm   1 mph 97 % 0 in
00:17 36.1 °F 35.4 °F 30.3 in Calm   1 mph 97 % 0 in
00:22 36.3 °F 35.6 °F 30.3 in Calm   1 mph 97 % 0 in
00:27 36.3 °F 35.6 °F 30.3 in ENE 1 mph 2 mph 97 % 0 in
00:32 36.3 °F 35.6 °F 30.3 in Calm   2 mph 97 % 0 in
00:42 36.5 °F 35.8 °F 30.3 in ENE 2 mph 2 mph 97 % 0 in
00:52 36.7 °F 36 °F 30.3 in NE 1 mph 3 mph 97 % 0 in
00:57 36.7 °F 36 °F 30.3 in Calm   3 mph 97 % 0 in
01:02 36.7 °F 36 °F 30.3 in Calm   3 mph 97 % 0 in
01:12 36.9 °F 36.3 °F 30.3 in Calm   2 mph 98 % 0 in
01:22 36.9 °F 36.3 °F 30.3 in NE 1 mph 3 mph 98 % 0 in
01:27 36.9 °F 36.1 °F 30.3 in Calm   3 mph 97 % 0 in
01:32 36.9 °F 36.3 °F 30.3 in NNE 1 mph 3 mph 98 % 0 in
01:37 36.9 °F 36.3 °F 30.3 in NE 1 mph 3 mph 98 % 0 in
01:42 36.9 °F 36.3 °F 30.3 in NNE 1 mph 3 mph 98 % 0 in
01:52 37 °F 36.5 °F 30.3 in NE 1 mph 3 mph 98 % 0 in
02:02 37 °F 36.5 °F 30.3 in Calm   3 mph 98 % 0 in
02:12 37.2 °F 36.7 °F 30.3 in Calm   2 mph 98 % 0 in
02:17 37.2 °F 36.7 °F 30.3 in NNE 1 mph 2 mph 98 % 0 in
02:22 36.3 °F 36.3 °F 30.3 in Calm   4 mph 100 % 0 in
02:32 36.3 °F 36.3 °F 30.3 in Calm   4 mph 100 % 0 in
08:47 35.8 °F 35.1 °F 30.3 in Calm     97 % 0 in
08:52 35.6 °F 34.9 °F 30.3 in Calm     97 % 0 in
08:57 35.6 °F 34.9 °F 30.3 in Calm   1 mph 97 % 0 in
09:02 35.6 °F 34.9 °F 30.3 in Calm   1 mph 97 % 0 in
09:07 35.8 °F 35.1 °F 30.3 in Calm   1 mph 97 % 0 in
09:12 36 °F 35.4 °F 30.3 in Calm   1 mph 98 % 0 in
09:17 36 °F 35.4 °F 30.3 in Calm   1 mph 98 % 0 in
09:22 36.1 °F 35.6 °F 30.3 in Calm   1 mph 98 % 0 in
09:32 36.5 °F 36 °F 30.3 in Calm   1 mph 98 % 0 in
09:37 37 °F 36.5 °F 30.3 in Calm   1 mph 98 % 0 in
09:42 36.9 °F 36.3 °F 30.3 in Calm   1 mph 98 % 0 in
09:47 37 °F 36.5 °F 30.3 in Calm   1 mph 98 % 0 in
09:52 37.2 °F 36.7 °F 30.3 in Calm   1 mph 98 % 0 in
09:57 37.6 °F 37 °F 30.3 in Calm   1 mph 98 % 0 in
10:02 37.6 °F 37 °F 30.3 in ENE 1 mph 1 mph 98 % 0 in
10:12 38.1 °F 37.6 °F 30.4 in NNE 1 mph 2 mph 98 % 0 in
10:17 38.1 °F 37.6 °F 30.4 in ENE 1 mph 2 mph 98 % 0 in
10:22 38.5 °F 37.9 °F 30.4 in NE 1 mph 2 mph 98 % 0 in
10:27 38.5 °F 37.9 °F 30.4 in Calm   2 mph 98 % 0 in
10:32 38.5 °F 37.9 °F 30.4 in Calm   2 mph 98 % 0 in
10:37 39 °F 38.5 °F 30.3 in NE 1 mph 2 mph 98 % 0 in
10:42 39.4 °F 38.8 °F 30.3 in Calm   2 mph 98 % 0 in
10:47 39.9 °F 39.4 °F 30.3 in Calm   2 mph 98 % 0 in
10:52 40.1 °F 39.6 °F 30.3 in Calm   2 mph 98 % 0 in
10:57 40.5 °F 39.9 °F 30.3 in Calm   2 mph 98 % 0 in
11:02 40.6 °F 40.1 °F 30.3 in NE 1 mph 2 mph 98 % 0 in
11:07 40.8 °F 40.3 °F 30.4 in Calm   3 mph 98 % 0 in
11:12 41.2 °F 40.6 °F 30.4 in ENE 4 mph 4 mph 98 % 0 in
11:17 41.4 °F 40.8 °F 30.4 in ENE 6 mph 11 mph 98 % 0 in
11:22 41.5 °F 41 °F 30.3 in NE 6 mph 11 mph 98 % 0 in
11:27 41.5 °F 41 °F 30.3 in NE 2 mph 11 mph 98 % 0 in
11:32 41.9 °F 41.4 °F 30.3 in NNE 6 mph 11 mph 98 % 0 in
11:42 42.6 °F 42.1 °F 30.3 in NNE 9 mph 13 mph 98 % 0 in
11:47 42.6 °F 41.9 °F 30.3 in NE 12 mph 14 mph 97 % 0 in
11:52 42.6 °F 41.9 °F 30.3 in NE 3 mph 14 mph 97 % 0 in
11:57 43 °F 42.3 °F 30.3 in NE 9 mph 15 mph 97 % 0 in
12:02 43.2 °F 42.1 °F 30.3 in NE 6 mph 15 mph 96 % 0 in
12:07 43.3 °F 42.3 °F 30.3 in NE 1 mph 13 mph 96 % 0 in
12:12 43.9 °F 42.6 °F 30.3 in North 7 mph 13 mph 95 % 0 in
12:17 44.2 °F 43 °F 30.3 in NNE 8 mph 13 mph 95 % 0 in
12:22 44.2 °F 42.6 °F 30.3 in NNE 8 mph 13 mph 94 % 0 in
12:42 45 °F 43 °F 30.3 in NNE 2 mph 13 mph 93 % 0 in
12:47 45 °F 42.8 °F 30.3 in NE 5 mph 11 mph 92 % 0 in
12:52 45 °F 42.8 °F 30.3 in NNE 6 mph 11 mph 92 % 0 in
13:02 45.3 °F 43.2 °F 30.3 in NE 1 mph 7 mph 92 % 0 in
13:12 46 °F 43.9 °F 30.3 in NE 3 mph 7 mph 92 % 0 in
13:17 46.2 °F 43.7 °F 30.3 in NE 4 mph 6 mph 91 % 0 in
13:27 46.8 °F 44.2 °F 30.3 in NNE 3 mph 7 mph 91 % 0 in
13:32 46.9 °F 44.2 °F 30.3 in East 3 mph 7 mph 90 % 0 in
13:42 47.3 °F 44.6 °F 30.3 in NE 3 mph 9 mph 90 % 0 in
13:52 48 °F 45 °F 30.3 in NE 7 mph 9 mph 89 % 0 in
13:57 48.4 °F 45.3 °F 30.3 in ENE 2 mph 9 mph 89 % 0 in
14:02 48.4 °F 45.3 °F 30.3 in NE 1 mph 9 mph 89 % 0 in
14:12 48.6 °F 45.5 °F 30.3 in East 4 mph 10 mph 89 % 0 in
14:17 48.6 °F 45.1 °F 30.3 in ENE 1 mph 10 mph 88 % 0 in
14:22 48.6 °F 45.1 °F 30.3 in East 2 mph 10 mph 88 % 0 in
14:32 48.7 °F 45.3 °F 30.3 in NE 4 mph 6 mph 88 % 0 in
14:37 48.7 °F 45.3 °F 30.3 in North 3 mph 7 mph 88 % 0 in
14:42 48.7 °F 45.3 °F 30.3 in ENE 3 mph 8 mph 88 % 0 in
14:52 48.9 °F 45.5 °F 30.3 in NE 4 mph 6 mph 88 % 0 in
14:57 48.9 °F 45.5 °F 30.3 in ENE 1 mph 7 mph 88 % 0 in
15:02 48.9 °F 45.5 °F 30.3 in NE 5 mph 7 mph 88 % 0 in
15:07 48.9 °F 45.5 °F 30.3 in NE 5 mph 7 mph 88 % 0 in
15:12 48.9 °F 45.5 °F 30.3 in NE 3 mph 7 mph 88 % 0 in
15:17 48.9 °F 45.5 °F 30.3 in NE 3 mph 7 mph 88 % 0 in
15:22 49.3 °F 45.9 °F 30.3 in NNE 3 mph 6 mph 88 % 0 in
15:27 49.6 °F 46.2 °F 30.3 in North 3 mph 5 mph 88 % 0 in
15:32 50 °F 46.6 °F 30.3 in NE 4 mph 6 mph 88 % 0 in
15:37 50.4 °F 46.6 °F 30.3 in NE 2 mph 7 mph 87 % 0 in
15:42 50.4 °F 46.6 °F 30.3 in ENE 2 mph 7 mph 87 % 0 in
15:47 50.2 °F 46.2 °F 30.3 in NE 2 mph 7 mph 86 % 0 in
15:52 50 °F 46.2 °F 30.3 in North 2 mph 6 mph 87 % 0 in
15:57 49.8 °F 46 °F 30.3 in NE 3 mph 6 mph 87 % 0 in
16:02 49.6 °F 45.9 °F 30.3 in NE 2 mph 6 mph 87 % 0 in
16:12 50 °F 46.2 °F 30.3 in NE 2 mph 6 mph 87 % 0 in
16:17 50.2 °F 46.4 °F 30.3 in NE 4 mph 6 mph 87 % 0 in
16:22 50 °F 46.2 °F 30.3 in NNE 3 mph 6 mph 87 % 0 in
16:32 49.6 °F 45.9 °F 30.3 in NNE 2 mph 6 mph 87 % 0 in
16:37 49.6 °F 45.9 °F 30.3 in NE 4 mph 7 mph 87 % 0 in
16:42 49.5 °F 46 °F 30.3 in NE 5 mph 7 mph 88 % 0 in
16:52 49.3 °F 45.9 °F 30.3 in NE 6 mph 9 mph 88 % 0 in
16:57 49.3 °F 45.9 °F 30.3 in NE 5 mph 9 mph 88 % 0 in
17:02 49.1 °F 45.7 °F 30.3 in NNW 5 mph 7 mph 88 % 0 in
17:07 48.9 °F 45.9 °F 30.3 in NNE 3 mph 9 mph 89 % 0 in
17:12 48.7 °F 45.7 °F 30.3 in NNE 5 mph 9 mph 89 % 0 in
17:22 48.4 °F 45.3 °F 30.3 in NNW 5 mph 9 mph 89 % 0 in
17:27 48 °F 45.1 °F 30.3 in NW 2 mph 8 mph 90 % 0 in
17:32 48 °F 45.1 °F 30.3 in NNE 3 mph 8 mph 90 % 0 in
17:37 48 °F 45.1 °F 30.3 in NE 5 mph 9 mph 90 % 0 in
17:42 47.8 °F 45 °F 30.3 in East 4 mph 9 mph 90 % 0 in
17:52 47.8 °F 45.3 °F 30.3 in NNE 3 mph 9 mph 91 % 0 in
17:57 47.7 °F 45.1 °F 30.3 in NNE 4 mph 8 mph 91 % 0 in
18:12 47.5 °F 45.3 °F 30.3 in NW 2 mph 7 mph 92 % 0 in
18:17 47.5 °F 45.3 °F 30.3 in NW 1 mph 7 mph 92 % 0 in
18:22 47.5 °F 45.3 °F 30.3 in Calm   8 mph 92 % 0 in
18:32 47.1 °F 45 °F 30.3 in NNW 2 mph 7 mph 92 % 0 in
18:37 47.1 °F 45 °F 30.3 in NNE 3 mph 5 mph 92 % 0 in
18:42 47.1 °F 45 °F 30.3 in ENE 1 mph 5 mph 92 % 0 in
18:47 47.1 °F 45 °F 30.3 in ENE 1 mph 7 mph 92 % 0 in
18:52 47.1 °F 45 °F 30.3 in NNW 3 mph 7 mph 92 % 0 in
18:57 46.9 °F 44.8 °F 30.3 in NNE 2 mph 6 mph 92 % 0 in
19:02 46.9 °F 44.4 °F 30.3 in ENE 3 mph 9 mph 91 % 0 in
19:12 46.9 °F 44.4 °F 30.3 in NNE 3 mph 12 mph 91 % 0 in
19:17 46.9 °F 44.4 °F 30.3 in NNW 4 mph 12 mph 91 % 0 in
19:22 46.9 °F 44.8 °F 30.3 in North 1 mph 8 mph 92 % 0 in
19:32 46.8 °F 44.6 °F 30.3 in NNE 3 mph 8 mph 92 % 0 in
19:37 46.8 °F 44.6 °F 30.3 in North 1 mph 7 mph 92 % 0 in
19:42 46.8 °F 44.6 °F 30.3 in NE 7 mph 7 mph 92 % 0 in
19:47 46.8 °F 44.6 °F 30.3 in North 1 mph 7 mph 92 % 0 in
19:57 46.6 °F 44.4 °F 30.3 in NE 3 mph 7 mph 92 % 0 in
20:02 46.6 °F 44.4 °F 30.3 in NE 2 mph 5 mph 92 % 0 in
20:12 46.4 °F 44.2 °F 30.3 in NE 2 mph 5 mph 92 % 0 in
20:17 46.4 °F 44.2 °F 30.3 in NE 2 mph 6 mph 92 % 0 in
20:22 46.2 °F 44.1 °F 30.3 in North 4 mph 7 mph 92 % 0 in
20:32 46.2 °F 44.1 °F 30.3 in NNE 3 mph 7 mph 92 % 0 in
20:42 46.2 °F 44.2 °F 30.3 in NE 2 mph 6 mph 93 % 0 in
20:47 46.2 °F 44.2 °F 30.3 in NNE 4 mph 5 mph 93 % 0 in
20:52 46.2 °F 44.2 °F 30.3 in NNW 3 mph 8 mph 93 % 0 in
20:57 46.2 °F 44.2 °F 30.3 in North 1 mph 8 mph 93 % 0 in
21:02 46 °F 44.1 °F 30.3 in North 6 mph 8 mph 93 % 0 in
21:12 46 °F 44.1 °F 30.3 in NNE 3 mph 11 mph 93 % 0 in
21:17 46 °F 44.1 °F 30.3 in NNE 1 mph 11 mph 93 % 0 in
21:22 46 °F 44.1 °F 30.3 in NNE 3 mph 11 mph 93 % 0 in
21:27 46 °F 44.1 °F 30.3 in NNW 2 mph 7 mph 93 % 0 in
21:32 45.9 °F 44.2 °F 30.3 in North 1 mph 6 mph 94 % 0 in
21:37 45.9 °F 44.2 °F 30.3 in Calm   7 mph 94 % 0 in
21:42 45.9 °F 44.2 °F 30.3 in NNE 2 mph 7 mph 94 % 0 in
21:47 45.9 °F 44.2 °F 30.3 in North 2 mph 7 mph 94 % 0 in
21:52 45.9 °F 44.2 °F 30.3 in Calm   5 mph 94 % 0 in
21:57 45.7 °F 44.1 °F 30.3 in North 1 mph 5 mph 94 % 0 in
22:02 45.7 °F 44.1 °F 30.3 in Calm   7 mph 94 % 0 in
22:12 45.7 °F 44.1 °F 30.3 in NNE 7 mph 7 mph 94 % 0 in
22:22 45.7 °F 44.4 °F 30.3 in Calm   8 mph 95 % 0 in
22:27 45.5 °F 44.2 °F 30.3 in NNW 1 mph 8 mph 95 % 0 in
22:37 45.5 °F 44.2 °F 30.3 in NNW 1 mph 7 mph 95 % 0 in
22:42 45.5 °F 44.2 °F 30.3 in NW 3 mph 7 mph 95 % 0 in
22:47 45.3 °F 44.1 °F 30.3 in North 4 mph 6 mph 95 % 0 in
22:52 45.3 °F 44.1 °F 30.3 in NNW 3 mph 8 mph 95 % 0 in
22:57 45.3 °F 44.1 °F 30.3 in North 2 mph 8 mph 95 % 0 in
23:02 45.3 °F 44.1 °F 30.3 in NNE 4 mph 8 mph 95 % 0 in
23:07 45.1 °F 43.9 °F 30.3 in NNE 2 mph 8 mph 95 % 0 in
23:12 45.1 °F 43.9 °F 30.3 in NE 1 mph 7 mph 95 % 0 in
23:22 45 °F 43.3 °F 30.3 in NE 2 mph 6 mph 94 % 0 in
23:32 45 °F 43.3 °F 30.3 in NNE 1 mph 7 mph 94 % 0 in
23:37 44.8 °F 43.2 °F 30.3 in NNW 2 mph 7 mph 94 % 0 in
23:42 44.8 °F 43.2 °F 30.3 in NNW 2 mph 7 mph 94 % 0 in
23:47 44.8 °F 43.2 °F 30.3 in NE 4 mph 7 mph 94 % 0 in
23:52 44.8 °F 43.2 °F 30.3 in NNE 5 mph 6 mph 94 % 0 in
Meteo18
Compliments of Weather Underground - 4 mb

Script developed by  Jim McMurry - jmcmurry@mwt.net Adapted for the template by  Wim van der Kuil - Leuven-Template.eu

You find our weather info also at:

European Weather Network

Weather Underground

Equipment we use:

Weather-station
Davis Vue

Weather-program
Meteohub

Weather-server
Raspberry PI 2 B+

Provider
1 and 1

Davis Vue

Meteohub

Raspberry PI 2 B+

1 and 1